sensor_id;sensor_type;location;lat;lon;timestamp;P1;durP1;ratioP1;P2;durP2;ratioP2
10939;SDS011;5522;42.696;23.494;2023-12-29T00:01:11;48.05;;;24.80;;
10939;SDS011;5522;42.696;23.494;2023-12-29T00:03:37;41.13;;;21.65;;
10939;SDS011;5522;42.696;23.494;2023-12-29T00:06:04;43.83;;;22.35;;
10939;SDS011;5522;42.696;23.494;2023-12-29T00:08:32;39.25;;;21.02;;
10939;SDS011;5522;42.696;23.494;2023-12-29T00:10:58;40.72;;;20.33;;
10939;SDS011;5522;42.696;23.494;2023-12-29T00:13:25;36.22;;;20.83;;
10939;SDS011;5522;42.696;23.494;2023-12-29T00:15:53;39.85;;;20.80;;
10939;SDS011;5522;42.696;23.494;2023-12-29T00:18:23;35.85;;;19.55;;
10939;SDS011;5522;42.696;23.494;2023-12-29T00:20:50;37.60;;;20.10;;
10939;SDS011;5522;42.696;23.494;2023-12-29T00:23:16;38.15;;;20.00;;
10939;SDS011;5522;42.696;23.494;2023-12-29T00:25:43;37.40;;;20.08;;
10939;SDS011;5522;42.696;23.494;2023-12-29T00:28:10;39.53;;;20.25;;
10939;SDS011;5522;42.696;23.494;2023-12-29T00:30:38;41.45;;;21.50;;
10939;SDS011;5522;42.696;23.494;2023-12-29T00:33:07;42.58;;;20.38;;
10939;SDS011;5522;42.696;23.494;2023-12-29T00:35:36;38.97;;;21.17;;
10939;SDS011;5522;42.696;23.494;2023-12-29T00:38:03;43.45;;;21.27;;
10939;SDS011;5522;42.696;23.494;2023-12-29T00:40:30;38.67;;;20.73;;
10939;SDS011;5522;42.696;23.494;2023-12-29T00:42:57;35.85;;;19.50;;
10939;SDS011;5522;42.696;23.494;2023-12-29T00:45:23;32.65;;;18.98;;
10939;SDS011;5522;42.696;23.494;2023-12-29T00:47:50;36.33;;;19.92;;
10939;SDS011;5522;42.696;23.494;2023-12-29T00:50:18;43.92;;;21.17;;
10939;SDS011;5522;42.696;23.494;2023-12-29T00:52:45;39.53;;;20.13;;
10939;SDS011;5522;42.696;23.494;2023-12-29T00:55:12;38.30;;;20.40;;
10939;SDS011;5522;42.696;23.494;2023-12-29T00:57:39;52.55;;;23.30;;
10939;SDS011;5522;42.696;23.494;2023-12-29T01:00:07;52.40;;;23.50;;
10939;SDS011;5522;42.696;23.494;2023-12-29T01:07:49;73.15;;;23.60;;
10939;SDS011;5522;42.696;23.494;2023-12-29T01:10:15;67.00;;;25.38;;
10939;SDS011;5522;42.696;23.494;2023-12-29T01:12:42;78.63;;;25.15;;
10939;SDS011;5522;42.696;23.494;2023-12-29T01:15:09;75.28;;;25.23;;
10939;SDS011;5522;42.696;23.494;2023-12-29T01:17:36;89.85;;;25.67;;
10939;SDS011;5522;42.696;23.494;2023-12-29T01:22:38;56.90;;;23.13;;
10939;SDS011;5522;42.696;23.494;2023-12-29T01:25:06;47.30;;;22.27;;
10939;SDS011;5522;42.696;23.494;2023-12-29T01:27:33;52.85;;;23.55;;
10939;SDS011;5522;42.696;23.494;2023-12-29T01:30:00;54.13;;;24.08;;
10939;SDS011;5522;42.696;23.494;2023-12-29T01:32:27;49.22;;;22.48;;
10939;SDS011;5522;42.696;23.494;2023-12-29T01:34:54;48.85;;;22.70;;
10939;SDS011;5522;42.696;23.494;2023-12-29T01:37:21;51.65;;;23.13;;
10939;SDS011;5522;42.696;23.494;2023-12-29T01:39:47;48.28;;;24.67;;
10939;SDS011;5522;42.696;23.494;2023-12-29T01:42:15;55.67;;;25.08;;
10939;SDS011;5522;42.696;23.494;2023-12-29T01:44:42;44.67;;;23.20;;
10939;SDS011;5522;42.696;23.494;2023-12-29T01:47:11;45.25;;;22.60;;
10939;SDS011;5522;42.696;23.494;2023-12-29T01:49:40;53.00;;;23.10;;
10939;SDS011;5522;42.696;23.494;2023-12-29T01:52:10;45.38;;;24.13;;
10939;SDS011;5522;42.696;23.494;2023-12-29T01:54:38;47.40;;;23.60;;
10939;SDS011;5522;42.696;23.494;2023-12-29T01:57:07;54.53;;;25.90;;
10939;SDS011;5522;42.696;23.494;2023-12-29T01:59:36;55.55;;;28.15;;
10939;SDS011;5522;42.696;23.494;2023-12-29T02:02:04;61.08;;;28.92;;
10939;SDS011;5522;42.696;23.494;2023-12-29T02:04:31;50.80;;;27.35;;
10939;SDS011;5522;42.696;23.494;2023-12-29T02:06:58;54.72;;;26.90;;
10939;SDS011;5522;42.696;23.494;2023-12-29T02:09:25;49.80;;;26.30;;
10939;SDS011;5522;42.696;23.494;2023-12-29T02:11:52;56.08;;;27.75;;
10939;SDS011;5522;42.696;23.494;2023-12-29T02:14:19;57.63;;;26.30;;
10939;SDS011;5522;42.696;23.494;2023-12-29T02:16:50;53.70;;;24.63;;
10939;SDS011;5522;42.696;23.494;2023-12-29T02:19:25;53.85;;;26.00;;
10939;SDS011;5522;42.696;23.494;2023-12-29T02:22:02;48.65;;;23.67;;
10939;SDS011;5522;42.696;23.494;2023-12-29T02:24:30;44.95;;;22.38;;
10939;SDS011;5522;42.696;23.494;2023-12-29T02:27:01;42.40;;;21.70;;
10939;SDS011;5522;42.696;23.494;2023-12-29T02:29:33;48.88;;;24.50;;
10939;SDS011;5522;42.696;23.494;2023-12-29T02:32:01;48.40;;;24.80;;
10939;SDS011;5522;42.696;23.494;2023-12-29T02:34:32;45.15;;;22.27;;
10939;SDS011;5522;42.696;23.494;2023-12-29T02:37:00;48.72;;;21.95;;
10939;SDS011;5522;42.696;23.494;2023-12-29T02:39:28;49.22;;;22.92;;
10939;SDS011;5522;42.696;23.494;2023-12-29T02:41:55;45.95;;;21.88;;
10939;SDS011;5522;42.696;23.494;2023-12-29T02:44:24;49.25;;;22.38;;
10939;SDS011;5522;42.696;23.494;2023-12-29T02:46:50;47.42;;;21.13;;
10939;SDS011;5522;42.696;23.494;2023-12-29T02:49:17;52.95;;;21.30;;
10939;SDS011;5522;42.696;23.494;2023-12-29T02:51:44;69.45;;;23.67;;
10939;SDS011;5522;42.696;23.494;2023-12-29T02:54:13;62.20;;;22.05;;
10939;SDS011;5522;42.696;23.494;2023-12-29T02:56:39;67.43;;;22.15;;
10939;SDS011;5522;42.696;23.494;2023-12-29T02:59:06;70.90;;;23.25;;
10939;SDS011;5522;42.696;23.494;2023-12-29T03:01:34;68.88;;;22.80;;
10939;SDS011;5522;42.696;23.494;2023-12-29T03:04:01;59.05;;;22.65;;
10939;SDS011;5522;42.696;23.494;2023-12-29T03:06:28;59.88;;;22.42;;
10939;SDS011;5522;42.696;23.494;2023-12-29T03:08:55;170.57;;;74.30;;
10939;SDS011;5522;42.696;23.494;2023-12-29T03:11:21;115.45;;;46.78;;
10939;SDS011;5522;42.696;23.494;2023-12-29T03:13:48;63.28;;;26.73;;
10939;SDS011;5522;42.696;23.494;2023-12-29T03:16:15;55.97;;;25.15;;
10939;SDS011;5522;42.696;23.494;2023-12-29T03:18:43;53.25;;;28.35;;
10939;SDS011;5522;42.696;23.494;2023-12-29T03:21:10;46.33;;;21.48;;
10939;SDS011;5522;42.696;23.494;2023-12-29T03:23:36;31.17;;;17.58;;
10939;SDS011;5522;42.696;23.494;2023-12-29T03:26:04;38.22;;;19.77;;
10939;SDS011;5522;42.696;23.494;2023-12-29T03:28:30;35.35;;;18.88;;
10939;SDS011;5522;42.696;23.494;2023-12-29T03:30:57;36.50;;;17.90;;
10939;SDS011;5522;42.696;23.494;2023-12-29T03:33:24;47.28;;;26.38;;
10939;SDS011;5522;42.696;23.494;2023-12-29T03:35:52;42.50;;;21.77;;
10939;SDS011;5522;42.696;23.494;2023-12-29T03:38:19;41.72;;;20.80;;
10939;SDS011;5522;42.696;23.494;2023-12-29T03:40:46;40.28;;;20.30;;
10939;SDS011;5522;42.696;23.494;2023-12-29T03:43:12;43.05;;;20.58;;
10939;SDS011;5522;42.696;23.494;2023-12-29T03:45:39;40.30;;;19.60;;
10939;SDS011;5522;42.696;23.494;2023-12-29T03:48:06;42.20;;;20.20;;
10939;SDS011;5522;42.696;23.494;2023-12-29T03:50:34;33.95;;;17.63;;
10939;SDS011;5522;42.696;23.494;2023-12-29T03:53:02;33.53;;;17.40;;
10939;SDS011;5522;42.696;23.494;2023-12-29T03:55:29;31.48;;;16.55;;
10939;SDS011;5522;42.696;23.494;2023-12-29T03:57:55;33.10;;;17.27;;
10939;SDS011;5522;42.696;23.494;2023-12-29T04:00:23;28.90;;;15.82;;
10939;SDS011;5522;42.696;23.494;2023-12-29T04:02:50;33.42;;;17.65;;
10939;SDS011;5522;42.696;23.494;2023-12-29T04:05:17;29.70;;;17.67;;
10939;SDS011;5522;42.696;23.494;2023-12-29T04:07:44;34.28;;;17.30;;
10939;SDS011;5522;42.696;23.494;2023-12-29T04:10:12;32.40;;;16.52;;
10939;SDS011;5522;42.696;23.494;2023-12-29T04:12:39;35.85;;;17.35;;
10939;SDS011;5522;42.696;23.494;2023-12-29T04:15:06;33.53;;;16.33;;
10939;SDS011;5522;42.696;23.494;2023-12-29T04:17:33;33.58;;;16.80;;
10939;SDS011;5522;42.696;23.494;2023-12-29T04:20:00;30.40;;;15.57;;
10939;SDS011;5522;42.696;23.494;2023-12-29T04:22:27;31.40;;;16.48;;
10939;SDS011;5522;42.696;23.494;2023-12-29T04:24:54;30.30;;;15.90;;
10939;SDS011;5522;42.696;23.494;2023-12-29T04:27:22;28.95;;;15.25;;
10939;SDS011;5522;42.696;23.494;2023-12-29T04:29:49;28.13;;;16.15;;
10939;SDS011;5522;42.696;23.494;2023-12-29T04:32:15;30.85;;;16.98;;
10939;SDS011;5522;42.696;23.494;2023-12-29T04:34:42;28.13;;;16.20;;
10939;SDS011;5522;42.696;23.494;2023-12-29T04:37:09;29.83;;;16.55;;
10939;SDS011;5522;42.696;23.494;2023-12-29T04:39:37;32.47;;;16.00;;
10939;SDS011;5522;42.696;23.494;2023-12-29T04:42:03;34.40;;;19.13;;
10939;SDS011;5522;42.696;23.494;2023-12-29T04:44:32;37.22;;;20.85;;
10939;SDS011;5522;42.696;23.494;2023-12-29T04:46:58;43.75;;;23.38;;
10939;SDS011;5522;42.696;23.494;2023-12-29T04:49:25;42.53;;;23.10;;
10939;SDS011;5522;42.696;23.494;2023-12-29T04:51:52;44.35;;;24.23;;
10939;SDS011;5522;42.696;23.494;2023-12-29T04:54:19;40.65;;;23.00;;
10939;SDS011;5522;42.696;23.494;2023-12-29T04:56:45;50.72;;;26.35;;
10939;SDS011;5522;42.696;23.494;2023-12-29T04:59:12;47.50;;;24.05;;
10939;SDS011;5522;42.696;23.494;2023-12-29T05:01:40;49.25;;;25.27;;
10939;SDS011;5522;42.696;23.494;2023-12-29T05:04:07;53.25;;;28.00;;
10939;SDS011;5522;42.696;23.494;2023-12-29T05:06:34;50.45;;;26.60;;
10939;SDS011;5522;42.696;23.494;2023-12-29T05:09:01;64.65;;;29.23;;
10939;SDS011;5522;42.696;23.494;2023-12-29T05:11:28;60.53;;;28.95;;
10939;SDS011;5522;42.696;23.494;2023-12-29T05:13:55;77.20;;;31.70;;
10939;SDS011;5522;42.696;23.494;2023-12-29T05:16:22;62.58;;;30.42;;
10939;SDS011;5522;42.696;23.494;2023-12-29T05:18:50;50.80;;;25.13;;
10939;SDS011;5522;42.696;23.494;2023-12-29T05:21:16;49.25;;;24.27;;
10939;SDS011;5522;42.696;23.494;2023-12-29T05:23:44;46.72;;;22.13;;
10939;SDS011;5522;42.696;23.494;2023-12-29T05:26:11;42.08;;;21.70;;
10939;SDS011;5522;42.696;23.494;2023-12-29T05:28:38;49.53;;;28.48;;
10939;SDS011;5522;42.696;23.494;2023-12-29T05:31:05;53.13;;;25.88;;
10939;SDS011;5522;42.696;23.494;2023-12-29T05:33:32;47.65;;;19.77;;
10939;SDS011;5522;42.696;23.494;2023-12-29T05:36:05;45.22;;;20.88;;
10939;SDS011;5522;42.696;23.494;2023-12-29T05:38:33;44.17;;;21.08;;
10939;SDS011;5522;42.696;23.494;2023-12-29T05:41:00;38.85;;;19.05;;
10939;SDS011;5522;42.696;23.494;2023-12-29T05:43:28;48.75;;;23.20;;
10939;SDS011;5522;42.696;23.494;2023-12-29T05:45:55;46.72;;;22.75;;
10939;SDS011;5522;42.696;23.494;2023-12-29T05:48:22;46.88;;;21.75;;
10939;SDS011;5522;42.696;23.494;2023-12-29T05:50:49;59.38;;;20.60;;
10939;SDS011;5522;42.696;23.494;2023-12-29T05:53:17;57.13;;;18.80;;
10939;SDS011;5522;42.696;23.494;2023-12-29T05:55:44;55.20;;;19.85;;
10939;SDS011;5522;42.696;23.494;2023-12-29T05:58:11;44.47;;;17.73;;
10939;SDS011;5522;42.696;23.494;2023-12-29T06:00:38;44.05;;;16.85;;
10939;SDS011;5522;42.696;23.494;2023-12-29T06:03:05;49.15;;;21.10;;
10939;SDS011;5522;42.696;23.494;2023-12-29T06:05:32;49.17;;;18.70;;
10939;SDS011;5522;42.696;23.494;2023-12-29T06:07:58;48.28;;;18.38;;
10939;SDS011;5522;42.696;23.494;2023-12-29T06:10:27;40.92;;;17.60;;
10939;SDS011;5522;42.696;23.494;2023-12-29T06:12:53;57.67;;;21.73;;
10939;SDS011;5522;42.696;23.494;2023-12-29T06:15:20;64.82;;;20.77;;
10939;SDS011;5522;42.696;23.494;2023-12-29T06:17:47;65.45;;;19.63;;
10939;SDS011;5522;42.696;23.494;2023-12-29T06:20:14;84.10;;;23.73;;
10939;SDS011;5522;42.696;23.494;2023-12-29T06:22:41;97.80;;;32.10;;
10939;SDS011;5522;42.696;23.494;2023-12-29T06:25:08;92.80;;;33.65;;
10939;SDS011;5522;42.696;23.494;2023-12-29T06:27:37;80.18;;;30.50;;
10939;SDS011;5522;42.696;23.494;2023-12-29T06:30:08;57.65;;;26.13;;
10939;SDS011;5522;42.696;23.494;2023-12-29T06:32:36;51.13;;;23.02;;
10939;SDS011;5522;42.696;23.494;2023-12-29T06:35:04;68.03;;;30.90;;
10939;SDS011;5522;42.696;23.494;2023-12-29T06:37:31;64.38;;;27.67;;
10939;SDS011;5522;42.696;23.494;2023-12-29T06:39:58;48.58;;;24.38;;
10939;SDS011;5522;42.696;23.494;2023-12-29T06:42:25;72.70;;;36.65;;
10939;SDS011;5522;42.696;23.494;2023-12-29T06:44:53;117.15;;;48.78;;
10939;SDS011;5522;42.696;23.494;2023-12-29T06:47:20;91.22;;;40.58;;
10939;SDS011;5522;42.696;23.494;2023-12-29T06:49:47;60.88;;;26.27;;
10939;SDS011;5522;42.696;23.494;2023-12-29T06:52:14;130.20;;;44.60;;
10939;SDS011;5522;42.696;23.494;2023-12-29T06:54:41;105.82;;;40.83;;
10939;SDS011;5522;42.696;23.494;2023-12-29T06:57:08;54.10;;;25.90;;
10939;SDS011;5522;42.696;23.494;2023-12-29T06:59:35;94.03;;;38.20;;
10939;SDS011;5522;42.696;23.494;2023-12-29T07:02:04;103.57;;;37.67;;
10939;SDS011;5522;42.696;23.494;2023-12-29T07:04:31;96.30;;;39.00;;
10939;SDS011;5522;42.696;23.494;2023-12-29T07:06:59;84.75;;;35.60;;
10939;SDS011;5522;42.696;23.494;2023-12-29T07:09:26;96.57;;;37.33;;
10939;SDS011;5522;42.696;23.494;2023-12-29T07:11:53;83.40;;;35.17;;
10939;SDS011;5522;42.696;23.494;2023-12-29T07:14:20;70.68;;;34.72;;
10939;SDS011;5522;42.696;23.494;2023-12-29T07:16:47;79.47;;;36.85;;
10939;SDS011;5522;42.696;23.494;2023-12-29T07:19:15;102.47;;;50.30;;
10939;SDS011;5522;42.696;23.494;2023-12-29T07:21:42;96.20;;;51.45;;
10939;SDS011;5522;42.696;23.494;2023-12-29T07:24:09;80.57;;;42.80;;
10939;SDS011;5522;42.696;23.494;2023-12-29T07:26:36;51.95;;;30.55;;
10939;SDS011;5522;42.696;23.494;2023-12-29T07:29:02;47.40;;;21.77;;
10939;SDS011;5522;42.696;23.494;2023-12-29T07:31:30;49.97;;;21.98;;
10939;SDS011;5522;42.696;23.494;2023-12-29T07:33:58;56.40;;;20.58;;
10939;SDS011;5522;42.696;23.494;2023-12-29T07:36:27;43.95;;;22.77;;
10939;SDS011;5522;42.696;23.494;2023-12-29T07:38:54;51.42;;;22.15;;
10939;SDS011;5522;42.696;23.494;2023-12-29T07:41:21;46.13;;;18.75;;
10939;SDS011;5522;42.696;23.494;2023-12-29T07:43:47;44.28;;;19.73;;
10939;SDS011;5522;42.696;23.494;2023-12-29T07:46:23;45.33;;;20.27;;
10939;SDS011;5522;42.696;23.494;2023-12-29T07:48:50;43.80;;;21.95;;
10939;SDS011;5522;42.696;23.494;2023-12-29T07:51:17;70.93;;;26.80;;
10939;SDS011;5522;42.696;23.494;2023-12-29T07:53:46;39.28;;;20.17;;
10939;SDS011;5522;42.696;23.494;2023-12-29T07:56:13;38.08;;;20.13;;
10939;SDS011;5522;42.696;23.494;2023-12-29T07:58:40;49.10;;;25.48;;
10939;SDS011;5522;42.696;23.494;2023-12-29T08:01:07;51.50;;;27.65;;
10939;SDS011;5522;42.696;23.494;2023-12-29T08:03:35;43.42;;;22.05;;
10939;SDS011;5522;42.696;23.494;2023-12-29T08:06:02;40.88;;;21.05;;
10939;SDS011;5522;42.696;23.494;2023-12-29T08:08:29;41.00;;;19.77;;
10939;SDS011;5522;42.696;23.494;2023-12-29T08:10:57;43.53;;;18.45;;
10939;SDS011;5522;42.696;23.494;2023-12-29T08:13:24;40.47;;;19.58;;
10939;SDS011;5522;42.696;23.494;2023-12-29T08:15:51;51.65;;;18.92;;
10939;SDS011;5522;42.696;23.494;2023-12-29T08:18:18;57.97;;;17.85;;
10939;SDS011;5522;42.696;23.494;2023-12-29T08:20:44;47.75;;;17.75;;
10939;SDS011;5522;42.696;23.494;2023-12-29T08:23:11;49.80;;;21.35;;
10939;SDS011;5522;42.696;23.494;2023-12-29T08:25:38;37.90;;;19.92;;
10939;SDS011;5522;42.696;23.494;2023-12-29T08:28:06;35.53;;;18.80;;
10939;SDS011;5522;42.696;23.494;2023-12-29T08:30:34;38.67;;;18.55;;
10939;SDS011;5522;42.696;23.494;2023-12-29T08:33:02;33.40;;;17.30;;
10939;SDS011;5522;42.696;23.494;2023-12-29T08:35:29;34.88;;;16.70;;
10939;SDS011;5522;42.696;23.494;2023-12-29T08:37:56;33.35;;;16.95;;
10939;SDS011;5522;42.696;23.494;2023-12-29T08:40:22;31.38;;;15.27;;
10939;SDS011;5522;42.696;23.494;2023-12-29T08:42:49;26.98;;;16.15;;
10939;SDS011;5522;42.696;23.494;2023-12-29T08:45:17;25.23;;;15.13;;
10939;SDS011;5522;42.696;23.494;2023-12-29T08:47:44;35.92;;;16.00;;
10939;SDS011;5522;42.696;23.494;2023-12-29T08:50:11;37.05;;;16.25;;
10939;SDS011;5522;42.696;23.494;2023-12-29T08:52:38;32.13;;;17.02;;
10939;SDS011;5522;42.696;23.494;2023-12-29T08:55:05;39.13;;;22.48;;
10939;SDS011;5522;42.696;23.494;2023-12-29T08:57:33;32.65;;;19.05;;
10939;SDS011;5522;42.696;23.494;2023-12-29T09:00:00;37.58;;;18.77;;
10939;SDS011;5522;42.696;23.494;2023-12-29T09:02:28;39.92;;;21.45;;
10939;SDS011;5522;42.696;23.494;2023-12-29T09:04:55;53.20;;;28.80;;
10939;SDS011;5522;42.696;23.494;2023-12-29T09:07:22;35.65;;;19.58;;
10939;SDS011;5522;42.696;23.494;2023-12-29T09:09:49;42.08;;;18.20;;
10939;SDS011;5522;42.696;23.494;2023-12-29T09:12:16;36.38;;;16.70;;
10939;SDS011;5522;42.696;23.494;2023-12-29T09:14:43;26.23;;;15.88;;
10939;SDS011;5522;42.696;23.494;2023-12-29T09:17:10;43.17;;;15.13;;
10939;SDS011;5522;42.696;23.494;2023-12-29T09:19:38;35.65;;;15.98;;
10939;SDS011;5522;42.696;23.494;2023-12-29T09:22:05;87.90;;;17.77;;
10939;SDS011;5522;42.696;23.494;2023-12-29T09:24:32;36.83;;;20.02;;
10939;SDS011;5522;42.696;23.494;2023-12-29T09:26:59;59.72;;;17.10;;
10939;SDS011;5522;42.696;23.494;2023-12-29T09:29:26;42.67;;;20.88;;
10939;SDS011;5522;42.696;23.494;2023-12-29T09:31:52;25.73;;;16.20;;
10939;SDS011;5522;42.696;23.494;2023-12-29T09:34:22;25.95;;;15.15;;
10939;SDS011;5522;42.696;23.494;2023-12-29T09:36:50;34.63;;;21.63;;
10939;SDS011;5522;42.696;23.494;2023-12-29T09:39:17;33.47;;;20.50;;
10939;SDS011;5522;42.696;23.494;2023-12-29T09:41:46;38.20;;;24.73;;
10939;SDS011;5522;42.696;23.494;2023-12-29T09:44:13;26.67;;;19.08;;
10939;SDS011;5522;42.696;23.494;2023-12-29T09:46:41;31.35;;;20.58;;
10939;SDS011;5522;42.696;23.494;2023-12-29T09:49:08;31.30;;;23.85;;
10939;SDS011;5522;42.696;23.494;2023-12-29T09:51:36;38.10;;;26.38;;
10939;SDS011;5522;42.696;23.494;2023-12-29T09:54:06;53.67;;;36.28;;
10939;SDS011;5522;42.696;23.494;2023-12-29T09:56:35;40.13;;;28.40;;
10939;SDS011;5522;42.696;23.494;2023-12-29T09:59:02;38.58;;;25.33;;
10939;SDS011;5522;42.696;23.494;2023-12-29T10:01:30;37.60;;;22.60;;
10939;SDS011;5522;42.696;23.494;2023-12-29T10:03:58;26.95;;;20.67;;
10939;SDS011;5522;42.696;23.494;2023-12-29T10:06:25;31.10;;;21.77;;
10939;SDS011;5522;42.696;23.494;2023-12-29T10:08:52;43.50;;;30.17;;
10939;SDS011;5522;42.696;23.494;2023-12-29T10:11:23;126.22;;;78.20;;
10939;SDS011;5522;42.696;23.494;2023-12-29T10:13:52;33.55;;;24.08;;
10939;SDS011;5522;42.696;23.494;2023-12-29T10:16:24;29.60;;;21.30;;
10939;SDS011;5522;42.696;23.494;2023-12-29T10:18:57;33.40;;;26.40;;
10939;SDS011;5522;42.696;23.494;2023-12-29T10:21:29;23.70;;;20.38;;
10939;SDS011;5522;42.696;23.494;2023-12-29T10:24:05;20.75;;;17.00;;
10939;SDS011;5522;42.696;23.494;2023-12-29T10:26:38;21.15;;;17.60;;
10939;SDS011;5522;42.696;23.494;2023-12-29T10:29:06;22.77;;;18.95;;
10939;SDS011;5522;42.696;23.494;2023-12-29T10:31:33;29.13;;;19.83;;
10939;SDS011;5522;42.696;23.494;2023-12-29T10:34:19;25.55;;;19.02;;
10939;SDS011;5522;42.696;23.494;2023-12-29T10:36:47;26.88;;;19.60;;
10939;SDS011;5522;42.696;23.494;2023-12-29T10:39:14;26.17;;;18.33;;
10939;SDS011;5522;42.696;23.494;2023-12-29T10:41:43;20.60;;;18.08;;
10939;SDS011;5522;42.696;23.494;2023-12-29T10:44:10;22.02;;;18.90;;
10939;SDS011;5522;42.696;23.494;2023-12-29T10:46:39;24.15;;;19.38;;
10939;SDS011;5522;42.696;23.494;2023-12-29T10:49:06;26.63;;;18.42;;
10939;SDS011;5522;42.696;23.494;2023-12-29T10:51:34;23.73;;;20.27;;
10939;SDS011;5522;42.696;23.494;2023-12-29T10:54:01;24.63;;;20.00;;
10939;SDS011;5522;42.696;23.494;2023-12-29T10:56:28;26.17;;;18.15;;
10939;SDS011;5522;42.696;23.494;2023-12-29T10:59:00;23.08;;;16.42;;
10939;SDS011;5522;42.696;23.494;2023-12-29T11:01:28;20.88;;;18.67;;
10939;SDS011;5522;42.696;23.494;2023-12-29T11:03:59;17.38;;;14.25;;
10939;SDS011;5522;42.696;23.494;2023-12-29T11:06:28;14.18;;;11.30;;
10939;SDS011;5522;42.696;23.494;2023-12-29T11:08:56;16.95;;;11.93;;
10939;SDS011;5522;42.696;23.494;2023-12-29T11:11:23;15.60;;;12.68;;
10939;SDS011;5522;42.696;23.494;2023-12-29T11:13:51;18.17;;;12.85;;
10939;SDS011;5522;42.696;23.494;2023-12-29T11:16:22;13.10;;;11.68;;
10939;SDS011;5522;42.696;23.494;2023-12-29T11:18:50;11.25;;;9.93;;
10939;SDS011;5522;42.696;23.494;2023-12-29T11:21:19;12.20;;;9.82;;
10939;SDS011;5522;42.696;23.494;2023-12-29T11:23:52;15.32;;;10.93;;
10939;SDS011;5522;42.696;23.494;2023-12-29T11:26:21;13.90;;;11.25;;
10939;SDS011;5522;42.696;23.494;2023-12-29T11:28:48;10.80;;;8.35;;
10939;SDS011;5522;42.696;23.494;2023-12-29T11:31:16;11.90;;;10.05;;
10939;SDS011;5522;42.696;23.494;2023-12-29T11:33:46;11.75;;;9.32;;
10939;SDS011;5522;42.696;23.494;2023-12-29T11:36:20;15.20;;;9.93;;
10939;SDS011;5522;42.696;23.494;2023-12-29T11:38:54;21.73;;;12.63;;
10939;SDS011;5522;42.696;23.494;2023-12-29T11:41:28;20.05;;;15.25;;
10939;SDS011;5522;42.696;23.494;2023-12-29T11:44:01;20.05;;;13.70;;
10939;SDS011;5522;42.696;23.494;2023-12-29T11:46:35;11.73;;;8.77;;
10939;SDS011;5522;42.696;23.494;2023-12-29T11:49:05;12.30;;;8.15;;
10939;SDS011;5522;42.696;23.494;2023-12-29T11:51:32;29.08;;;20.90;;
10939;SDS011;5522;42.696;23.494;2023-12-29T11:54:00;18.30;;;13.73;;
10939;SDS011;5522;42.696;23.494;2023-12-29T11:56:34;17.52;;;12.20;;
10939;SDS011;5522;42.696;23.494;2023-12-29T11:59:17;16.75;;;12.57;;
10939;SDS011;5522;42.696;23.494;2023-12-29T12:01:46;17.40;;;12.15;;
10939;SDS011;5522;42.696;23.494;2023-12-29T12:07:08;14.82;;;10.13;;
10939;SDS011;5522;42.696;23.494;2023-12-29T12:09:39;16.30;;;10.20;;
10939;SDS011;5522;42.696;23.494;2023-12-29T12:12:06;14.30;;;9.20;;
10939;SDS011;5522;42.696;23.494;2023-12-29T12:14:46;13.93;;;8.77;;
10939;SDS011;5522;42.696;23.494;2023-12-29T12:17:27;14.15;;;8.32;;
10939;SDS011;5522;42.696;23.494;2023-12-29T12:19:58;15.85;;;7.38;;
10939;SDS011;5522;42.696;23.494;2023-12-29T12:22:26;12.00;;;6.93;;
10939;SDS011;5522;42.696;23.494;2023-12-29T12:24:57;10.50;;;7.70;;
10939;SDS011;5522;42.696;23.494;2023-12-29T12:27:24;12.00;;;7.78;;
10939;SDS011;5522;42.696;23.494;2023-12-29T12:29:55;9.07;;;7.47;;
10939;SDS011;5522;42.696;23.494;2023-12-29T12:32:24;10.85;;;6.47;;
10939;SDS011;5522;42.696;23.494;2023-12-29T12:34:51;11.35;;;7.60;;
10939;SDS011;5522;42.696;23.494;2023-12-29T12:37:20;8.10;;;7.00;;
10939;SDS011;5522;42.696;23.494;2023-12-29T12:39:47;10.18;;;7.55;;
10939;SDS011;5522;42.696;23.494;2023-12-29T12:42:15;10.85;;;6.47;;
10939;SDS011;5522;42.696;23.494;2023-12-29T12:44:46;10.88;;;7.15;;
10939;SDS011;5522;42.696;23.494;2023-12-29T12:47:18;8.73;;;7.38;;
10939;SDS011;5522;42.696;23.494;2023-12-29T12:49:51;11.35;;;7.05;;
10939;SDS011;5522;42.696;23.494;2023-12-29T12:52:19;12.75;;;8.27;;
10939;SDS011;5522;42.696;23.494;2023-12-29T12:54:46;14.27;;;8.48;;
10939;SDS011;5522;42.696;23.494;2023-12-29T12:57:17;16.10;;;7.78;;
10939;SDS011;5522;42.696;23.494;2023-12-29T12:59:45;11.48;;;8.70;;
10939;SDS011;5522;42.696;23.494;2023-12-29T13:02:12;11.18;;;8.07;;
10939;SDS011;5522;42.696;23.494;2023-12-29T13:04:40;13.05;;;9.48;;
10939;SDS011;5522;42.696;23.494;2023-12-29T13:07:07;14.15;;;10.05;;
10939;SDS011;5522;42.696;23.494;2023-12-29T13:09:36;17.15;;;11.75;;
10939;SDS011;5522;42.696;23.494;2023-12-29T13:12:07;14.77;;;9.98;;
10939;SDS011;5522;42.696;23.494;2023-12-29T13:14:34;17.15;;;9.60;;
10939;SDS011;5522;42.696;23.494;2023-12-29T13:17:05;14.77;;;10.48;;
10939;SDS011;5522;42.696;23.494;2023-12-29T13:19:32;13.82;;;10.43;;
10939;SDS011;5522;42.696;23.494;2023-12-29T13:22:00;16.75;;;11.00;;
10939;SDS011;5522;42.696;23.494;2023-12-29T13:24:28;13.85;;;10.98;;
10939;SDS011;5522;42.696;23.494;2023-12-29T13:26:57;18.05;;;11.55;;
10939;SDS011;5522;42.696;23.494;2023-12-29T13:29:28;20.48;;;13.32;;
10939;SDS011;5522;42.696;23.494;2023-12-29T13:31:58;15.95;;;11.38;;
10939;SDS011;5522;42.696;23.494;2023-12-29T13:34:28;24.30;;;14.13;;
10939;SDS011;5522;42.696;23.494;2023-12-29T13:37:01;18.52;;;12.02;;
10939;SDS011;5522;42.696;23.494;2023-12-29T13:39:29;16.85;;;11.48;;
10939;SDS011;5522;42.696;23.494;2023-12-29T13:42:07;24.15;;;14.45;;
10939;SDS011;5522;42.696;23.494;2023-12-29T13:44:38;25.13;;;15.00;;
10939;SDS011;5522;42.696;23.494;2023-12-29T13:47:07;39.85;;;24.10;;
10939;SDS011;5522;42.696;23.494;2023-12-29T13:49:36;37.78;;;24.40;;
10939;SDS011;5522;42.696;23.494;2023-12-29T13:52:04;31.52;;;21.00;;
10939;SDS011;5522;42.696;23.494;2023-12-29T13:54:40;30.10;;;19.05;;
10939;SDS011;5522;42.696;23.494;2023-12-29T13:57:09;26.75;;;17.02;;
10939;SDS011;5522;42.696;23.494;2023-12-29T13:59:36;25.58;;;15.80;;
10939;SDS011;5522;42.696;23.494;2023-12-29T14:02:04;27.48;;;15.90;;
10939;SDS011;5522;42.696;23.494;2023-12-29T14:04:46;26.67;;;16.30;;
10939;SDS011;5522;42.696;23.494;2023-12-29T14:07:13;35.50;;;22.05;;
10939;SDS011;5522;42.696;23.494;2023-12-29T14:09:41;25.42;;;15.93;;
10939;SDS011;5522;42.696;23.494;2023-12-29T14:12:09;31.50;;;20.58;;
10939;SDS011;5522;42.696;23.494;2023-12-29T14:14:36;23.33;;;13.65;;
10939;SDS011;5522;42.696;23.494;2023-12-29T14:17:03;21.00;;;12.88;;
10939;SDS011;5522;42.696;23.494;2023-12-29T14:19:36;20.30;;;14.27;;
10939;SDS011;5522;42.696;23.494;2023-12-29T14:22:04;35.13;;;18.05;;
10939;SDS011;5522;42.696;23.494;2023-12-29T14:24:30;25.25;;;14.27;;
10939;SDS011;5522;42.696;23.494;2023-12-29T14:26:56;24.70;;;14.32;;
10939;SDS011;5522;42.696;23.494;2023-12-29T14:29:25;30.73;;;14.77;;
10939;SDS011;5522;42.696;23.494;2023-12-29T14:31:52;26.40;;;13.85;;
10939;SDS011;5522;42.696;23.494;2023-12-29T14:34:21;38.85;;;16.95;;
10939;SDS011;5522;42.696;23.494;2023-12-29T14:36:48;62.50;;;25.55;;
10939;SDS011;5522;42.696;23.494;2023-12-29T14:39:15;53.47;;;26.02;;